createdAt,value
2023-03-05T00:01:33.635Z,5.92
2023-03-05T00:04:01.821Z,5.83
2023-03-05T00:06:30.190Z,5.90
2023-03-05T00:08:58.449Z,5.87
2023-03-05T00:11:29.757Z,5.84
2023-03-05T00:13:57.686Z,5.75
2023-03-05T00:16:26.953Z,5.68
2023-03-05T00:18:55.422Z,5.81
2023-03-05T00:21:27.764Z,5.66
2023-03-05T00:23:54.871Z,5.80
2023-03-05T00:26:23.868Z,5.77
2023-03-05T00:28:52.439Z,5.71
2023-03-05T00:31:22.101Z,5.71
2023-03-05T00:33:56.263Z,5.65
2023-03-05T00:36:24.605Z,5.55
2023-03-05T00:38:51.466Z,5.62
2023-03-05T00:41:18.172Z,5.54
2023-03-05T00:43:44.816Z,5.44
2023-03-05T00:46:11.596Z,5.66
2023-03-05T00:48:38.228Z,5.51
2023-03-05T00:51:05.127Z,5.51
2023-03-05T00:53:31.808Z,5.58
2023-03-05T00:55:58.851Z,5.55
2023-03-05T00:58:25.471Z,5.61
2023-03-05T01:00:52.025Z,5.64
2023-03-05T01:03:19.379Z,5.52
2023-03-05T01:05:46.078Z,5.27
2023-03-05T01:08:12.683Z,5.35
2023-03-05T01:10:39.335Z,5.32
2023-03-05T01:13:05.944Z,5.49
2023-03-05T01:15:32.650Z,5.43
2023-03-05T01:17:59.294Z,5.49
2023-03-05T01:20:25.894Z,5.51
2023-03-05T01:22:53.045Z,5.40
2023-03-05T01:25:19.738Z,5.26
2023-03-05T01:27:46.449Z,5.39
2023-03-05T01:30:14.771Z,5.41
2023-03-05T01:32:41.676Z,5.31
2023-03-05T01:35:11.069Z,5.35
2023-03-05T01:37:37.644Z,5.39
2023-03-05T01:40:05.622Z,5.38
2023-03-05T01:42:32.267Z,5.14
2023-03-05T01:45:10.290Z,5.35
2023-03-05T01:47:37.712Z,5.29
2023-03-05T01:50:07.942Z,5.34
2023-03-05T01:52:37.823Z,5.22
2023-03-05T01:55:17.472Z,5.38
2023-03-05T01:57:48.048Z,5.37
2023-03-05T02:00:22.464Z,5.28
2023-03-05T02:02:51.395Z,5.31
2023-03-05T02:05:29.513Z,5.10
2023-03-05T02:08:01.857Z,5.13
2023-03-05T02:10:34.186Z,5.26
2023-03-05T02:13:04.149Z,5.15
2023-03-05T02:15:31.092Z,5.11
2023-03-05T02:17:57.739Z,5.05
2023-03-05T02:20:53.916Z,5.15
2023-03-05T02:23:22.681Z,5.15
2023-03-05T02:25:49.803Z,5.00
2023-03-05T02:28:46.027Z,5.13
2023-03-05T02:31:21.484Z,5.02
2023-03-05T02:33:48.722Z,5.04
2023-03-05T02:36:15.960Z,5.04
2023-03-05T02:38:43.336Z,5.01
2023-03-05T02:41:10.527Z,4.81
2023-03-05T02:43:37.408Z,4.90
2023-03-05T02:46:04.426Z,4.88
2023-03-05T02:48:31.637Z,4.87
2023-03-05T02:50:58.323Z,4.83
2023-03-05T02:53:26.393Z,4.84
2023-03-05T02:55:53.206Z,4.79
2023-03-05T02:58:19.814Z,4.86
2023-03-05T03:00:49.348Z,4.77
2023-03-05T03:03:16.192Z,4.66
2023-03-05T03:05:42.918Z,4.73
2023-03-05T03:08:10.438Z,4.64
2023-03-05T03:10:37.401Z,4.58
2023-03-05T03:13:04.099Z,4.62
2023-03-05T03:15:30.670Z,4.52
2023-03-05T03:17:57.298Z,4.67
2023-03-05T03:20:24.369Z,4.60
2023-03-05T03:22:51.109Z,4.57
2023-03-05T03:25:20.706Z,4.50
2023-03-05T03:27:47.335Z,4.62
2023-03-05T03:30:15.511Z,4.57
2023-03-05T03:32:42.480Z,4.54
2023-03-05T03:35:09.725Z,4.51
2023-03-05T03:37:36.404Z,4.51
2023-03-05T03:40:05.601Z,4.45
2023-03-05T03:42:32.815Z,4.49
2023-03-05T03:45:00.639Z,4.53
2023-03-05T03:47:27.248Z,4.43
2023-03-05T03:49:54.820Z,4.45
2023-03-05T03:52:23.012Z,4.46
2023-03-05T03:54:52.435Z,4.28
2023-03-05T03:57:19.425Z,4.36
2023-03-05T03:59:46.187Z,4.30
2023-03-05T04:02:12.958Z,4.25
2023-03-05T04:04:39.837Z,4.30
2023-03-05T04:07:06.481Z,4.39
2023-03-05T04:09:33.240Z,4.34
2023-03-05T04:11:59.854Z,4.33
2023-03-05T04:14:27.305Z,4.33
2023-03-05T04:16:53.898Z,4.45
2023-03-05T04:19:20.565Z,4.32
2023-03-05T04:21:47.209Z,4.36
2023-03-05T04:24:13.883Z,4.12
2023-03-05T04:26:40.475Z,4.34
2023-03-05T04:29:07.108Z,4.29
2023-03-05T04:31:33.750Z,4.18
2023-03-05T04:34:00.380Z,4.35
2023-03-05T04:36:26.985Z,4.27
2023-03-05T04:38:53.587Z,4.35
2023-03-05T04:41:20.238Z,4.24
2023-03-05T04:43:46.819Z,4.26
2023-03-05T04:46:13.495Z,4.37
2023-03-05T04:48:40.284Z,4.27
2023-03-05T04:51:06.888Z,4.26
2023-03-05T04:53:33.596Z,4.03
2023-03-05T04:56:01.691Z,4.04
2023-03-05T04:58:28.986Z,4.24
2023-03-05T05:01:01.224Z,4.06
2023-03-05T05:03:27.733Z,4.19
2023-03-05T05:05:56.135Z,4.06
2023-03-05T05:08:23.503Z,4.13
2023-03-05T05:11:04.828Z,4.07
2023-03-05T05:13:32.424Z,4.06
2023-03-05T05:15:59.409Z,4.03
2023-03-05T05:18:27.262Z,4.06
2023-03-05T05:20:53.849Z,4.04
2023-03-05T05:23:20.424Z,4.04
2023-03-05T05:25:55.385Z,3.97
2023-03-05T05:28:21.959Z,4.21
2023-03-05T05:30:48.578Z,3.99
2023-03-05T05:33:15.312Z,4.07
2023-03-05T05:35:41.989Z,4.13
2023-03-05T05:38:08.660Z,3.99
2023-03-05T05:40:35.236Z,4.26
2023-03-05T05:43:01.815Z,4.23
2023-03-05T05:45:28.553Z,4.14
2023-03-05T05:47:55.432Z,4.33
2023-03-05T05:50:22.026Z,4.35
2023-03-05T05:52:48.647Z,4.21
2023-03-05T05:55:16.268Z,4.28
2023-03-05T05:57:42.931Z,4.09
2023-03-05T06:00:12.148Z,4.41
2023-03-05T06:02:43.127Z,4.43
2023-03-05T06:05:14.874Z,4.45
2023-03-05T06:07:41.554Z,4.47
2023-03-05T06:10:09.940Z,4.38
2023-03-05T06:12:36.658Z,4.56
2023-03-05T06:15:03.457Z,4.64
2023-03-05T06:17:31.035Z,4.75
2023-03-05T06:19:58.844Z,4.64
2023-03-05T06:22:25.572Z,4.73
2023-03-05T06:24:52.217Z,4.66
2023-03-05T06:27:18.893Z,4.72
2023-03-05T06:29:45.475Z,4.65
2023-03-05T06:32:12.160Z,4.71
2023-03-05T06:34:38.789Z,4.84
2023-03-05T06:37:05.444Z,4.81
2023-03-05T06:39:32.102Z,4.95
2023-03-05T06:41:58.777Z,5.04
2023-03-05T06:44:25.868Z,4.95
2023-03-05T06:46:52.584Z,4.77
2023-03-05T06:49:19.208Z,4.75
2023-03-05T06:51:45.831Z,4.69
2023-03-05T06:54:15.374Z,4.58
2023-03-05T06:56:44.550Z,4.70
2023-03-05T06:59:12.809Z,4.62
2023-03-05T07:01:39.421Z,4.51
2023-03-05T07:04:07.124Z,4.68
2023-03-05T07:06:36.186Z,4.92
2023-03-05T07:09:04.492Z,5.05
2023-03-05T07:11:31.738Z,5.11
2023-03-05T07:13:58.761Z,5.25
2023-03-05T07:16:28.010Z,5.61
2023-03-05T07:18:57.130Z,5.94
2023-03-05T07:21:27.644Z,6.11
2023-03-05T07:23:55.440Z,6.28
2023-03-05T07:26:22.911Z,6.48
2023-03-05T07:28:49.820Z,6.42
2023-03-05T07:31:22.326Z,6.43
2023-03-05T07:33:50.871Z,6.17
2023-03-05T07:36:17.954Z,6.47
2023-03-05T07:38:45.390Z,6.78
2023-03-05T07:41:19.997Z,6.45
2023-03-05T07:43:48.887Z,6.42
2023-03-05T07:46:17.814Z,6.59
2023-03-05T07:48:45.112Z,6.69
2023-03-05T07:51:15.901Z,6.86
2023-03-05T07:53:46.767Z,7.01
2023-03-05T07:56:13.818Z,6.83
2023-03-05T07:58:40.440Z,6.64
2023-03-05T08:01:14.416Z,6.56
2023-03-05T08:03:42.664Z,6.54
2023-03-05T08:06:11.570Z,6.50
2023-03-05T08:08:38.589Z,6.54
2023-03-05T08:11:06.764Z,6.57
2023-03-05T08:13:33.494Z,6.82
2023-03-05T08:16:04.058Z,6.76
2023-03-05T08:18:30.666Z,6.82
2023-03-05T08:20:58.088Z,6.80
2023-03-05T08:23:24.681Z,6.96
2023-03-05T08:25:51.258Z,6.83
2023-03-05T08:28:19.692Z,7.02
2023-03-05T08:30:49.119Z,6.85
2023-03-05T08:33:17.727Z,6.79
2023-03-05T08:35:45.427Z,6.63
2023-03-05T08:38:15.551Z,6.61
2023-03-05T08:40:43.304Z,6.79
2023-03-05T08:43:10.158Z,6.80
2023-03-05T08:45:39.294Z,6.88
2023-03-05T08:48:06.125Z,6.64
2023-03-05T08:50:32.698Z,6.61
2023-03-05T08:53:00.192Z,6.66
2023-03-05T08:55:26.786Z,6.71
2023-03-05T08:57:53.444Z,6.60
2023-03-05T09:00:20.343Z,6.72
2023-03-05T09:02:46.998Z,6.69
2023-03-05T09:05:15.674Z,6.76
2023-03-05T09:07:42.528Z,7.02
2023-03-05T09:10:11.588Z,7.23
2023-03-05T09:12:38.196Z,7.41
2023-03-05T09:15:08.248Z,7.39
2023-03-05T09:17:38.738Z,7.61
2023-03-05T09:20:06.648Z,7.69
2023-03-05T09:22:33.387Z,8.12
2023-03-05T09:24:59.935Z,8.17
2023-03-05T09:27:26.558Z,8.36
2023-03-05T09:29:53.313Z,8.30
2023-03-05T09:32:20.145Z,8.11
2023-03-05T09:34:46.839Z,8.31
2023-03-05T09:37:13.510Z,8.73
2023-03-05T09:39:40.307Z,8.68
2023-03-05T09:42:15.783Z,8.50
2023-03-05T09:44:51.482Z,8.48
2023-03-05T09:47:38.961Z,8.25
2023-03-05T09:50:23.622Z,8.10
2023-03-05T09:52:57.738Z,8.18
2023-03-05T09:55:29.937Z,8.12
2023-03-05T09:58:03.532Z,8.39
2023-03-05T10:00:38.526Z,8.53
2023-03-05T10:03:22.866Z,8.44
2023-03-05T10:06:09.755Z,8.30
2023-03-05T10:09:06.900Z,8.53
2023-03-05T10:11:50.441Z,8.37
2023-03-05T10:14:30.277Z,8.54
2023-03-05T10:17:24.161Z,8.68
2023-03-05T10:20:28.115Z,8.80
2023-03-05T10:23:06.743Z,9.06
2023-03-05T10:26:05.945Z,8.61
2023-03-05T10:29:06.781Z,9.27
2023-03-05T10:31:59.529Z,8.95
2023-03-05T10:34:43.026Z,8.80
2023-03-05T10:37:31.979Z,8.74
2023-03-05T10:40:14.185Z,9.08
2023-03-05T10:43:02.851Z,9.15
2023-03-05T10:45:37.099Z,8.33
2023-03-05T10:48:35.100Z,9.15
2023-03-05T10:51:21.724Z,9.07
2023-03-05T10:53:56.922Z,9.01
2023-03-05T10:56:29.960Z,8.70
2023-03-05T10:59:01.766Z,9.25
2023-03-05T11:01:36.636Z,9.11
2023-03-05T11:04:25.168Z,8.84
2023-03-05T11:06:57.630Z,8.78
2023-03-05T11:09:29.679Z,8.76
2023-03-05T11:12:16.872Z,8.72
2023-03-05T11:15:04.138Z,8.91
2023-03-05T11:17:38.633Z,8.91
2023-03-05T11:20:26.552Z,9.26
2023-03-05T11:23:29.888Z,9.23
2023-03-05T11:26:00.938Z,9.06
2023-03-05T11:28:37.303Z,8.98
2023-03-05T11:31:23.646Z,8.76
2023-03-05T11:34:04.229Z,8.74
2023-03-05T11:36:42.079Z,8.95
2023-03-05T11:39:14.919Z,9.04
2023-03-05T11:41:48.000Z,8.84
2023-03-05T11:44:21.110Z,8.51
2023-03-05T11:46:52.593Z,8.93
2023-03-05T11:49:23.254Z,9.08
2023-03-05T11:51:55.741Z,9.02
2023-03-05T11:54:30.051Z,9.01
2023-03-05T11:56:56.896Z,9.07
2023-03-05T11:59:29.571Z,8.81
2023-03-05T12:01:58.532Z,9.12
2023-03-05T12:04:25.826Z,9.23
2023-03-05T12:07:00.604Z,9.33
2023-03-05T12:09:42.340Z,9.01
2023-03-05T12:12:17.880Z,8.82
2023-03-05T12:14:58.240Z,9.09
2023-03-05T12:17:37.987Z,9.31
2023-03-05T12:20:35.545Z,9.18
2023-03-05T12:23:02.255Z,9.07
2023-03-05T12:25:44.639Z,8.98
2023-03-05T12:28:34.302Z,9.18
2023-03-05T12:31:02.845Z,9.42
2023-03-05T12:33:33.033Z,9.24
2023-03-05T12:36:21.147Z,9.45
2023-03-05T12:38:57.507Z,9.52
2023-03-05T12:41:25.392Z,10.09
2023-03-05T12:44:05.682Z,10.03
2023-03-05T12:46:43.720Z,10.05
2023-03-05T12:49:19.234Z,9.71
2023-03-05T12:51:56.870Z,9.88
2023-03-05T12:54:42.050Z,9.58
2023-03-05T12:57:19.140Z,9.71
2023-03-05T12:59:59.709Z,9.60
2023-03-05T13:02:28.601Z,9.65
2023-03-05T13:05:00.535Z,9.57
2023-03-05T13:07:27.204Z,9.58
2023-03-05T13:09:57.339Z,9.57
2023-03-05T13:12:26.187Z,9.77
2023-03-05T13:15:08.911Z,9.43
2023-03-05T13:17:44.525Z,9.62
2023-03-05T13:20:38.840Z,9.84
2023-03-05T13:23:24.786Z,9.69
2023-03-05T13:26:10.385Z,9.49
2023-03-05T13:28:39.445Z,9.23
2023-03-05T13:31:18.619Z,9.34
2023-03-05T13:33:54.551Z,9.23
2023-03-05T13:36:24.150Z,9.03
2023-03-05T13:38:51.674Z,9.22
2023-03-05T13:41:28.970Z,9.11
2023-03-05T13:44:00.955Z,9.20
2023-03-05T13:46:34.648Z,9.15
2023-03-05T13:49:36.664Z,8.95
2023-03-05T13:52:03.379Z,9.06
2023-03-05T13:54:30.667Z,8.86
2023-03-05T13:57:00.630Z,9.10
2023-03-05T13:59:35.367Z,8.98
2023-03-05T14:02:15.750Z,8.96
2023-03-05T14:04:45.000Z,8.97
2023-03-05T14:07:20.204Z,8.82
2023-03-05T14:09:52.125Z,8.83
2023-03-05T14:12:35.628Z,8.34
2023-03-05T14:15:02.501Z,8.62
2023-03-05T14:17:38.836Z,8.59
2023-03-05T14:20:14.792Z,8.81
2023-03-05T14:22:46.480Z,8.83
2023-03-05T14:25:42.411Z,8.70
2023-03-05T14:28:17.870Z,8.73
2023-03-05T14:31:02.662Z,8.52
2023-03-05T14:33:32.748Z,8.42
2023-03-05T14:36:01.576Z,8.29
2023-03-05T14:38:31.792Z,8.30
2023-03-05T14:40:58.478Z,8.38
2023-03-05T14:43:25.124Z,8.17
2023-03-05T14:45:51.858Z,8.17
2023-03-05T14:48:21.284Z,8.14
2023-03-05T14:50:57.008Z,8.07
2023-03-05T14:53:30.077Z,8.31
2023-03-05T14:55:57.028Z,8.26
2023-03-05T14:58:32.310Z,7.93
2023-03-05T15:00:59.830Z,8.08
2023-03-05T15:03:27.991Z,7.92
2023-03-05T15:06:00.710Z,7.87
2023-03-05T15:08:31.048Z,7.87
2023-03-05T15:11:00.063Z,7.92
2023-03-05T15:13:27.220Z,7.84
2023-03-05T15:15:54.184Z,7.72
2023-03-05T15:18:22.521Z,7.73
2023-03-05T15:20:52.021Z,7.76
2023-03-05T15:23:19.381Z,7.60
2023-03-05T15:25:46.207Z,7.44
2023-03-05T15:28:12.868Z,7.62
2023-03-05T15:30:42.408Z,7.55
2023-03-05T15:33:12.059Z,7.43
2023-03-05T15:35:38.775Z,7.45
2023-03-05T15:38:05.587Z,7.44
2023-03-05T15:40:32.465Z,7.35
2023-03-05T15:43:00.371Z,7.28
2023-03-05T15:45:27.991Z,7.28
2023-03-05T15:47:54.730Z,7.24
2023-03-05T15:50:22.167Z,7.21
2023-03-05T15:52:49.757Z,7.27
2023-03-05T15:55:18.378Z,7.08
2023-03-05T15:57:48.052Z,7.01
2023-03-05T16:00:17.716Z,6.91
2023-03-05T16:02:44.337Z,6.85
2023-03-05T16:05:11.398Z,6.77
2023-03-05T16:07:42.013Z,6.61
2023-03-05T16:10:13.128Z,6.59
2023-03-05T16:12:42.966Z,6.70
2023-03-05T16:15:17.143Z,6.50
2023-03-05T16:17:45.487Z,6.44
2023-03-05T16:20:12.917Z,6.43
2023-03-05T16:22:40.072Z,6.38
2023-03-05T16:25:07.006Z,6.26
2023-03-05T16:27:34.074Z,6.14
2023-03-05T16:30:00.778Z,6.00
2023-03-05T16:32:27.435Z,5.95
2023-03-05T16:34:54.021Z,5.96
2023-03-05T16:37:23.247Z,5.99
2023-03-05T16:39:50.157Z,5.94
2023-03-05T16:42:16.994Z,5.77
2023-03-05T16:44:44.755Z,5.63
2023-03-05T16:47:12.334Z,5.62
2023-03-05T16:49:39.918Z,5.72
2023-03-05T16:52:18.421Z,5.60
2023-03-05T16:54:46.376Z,5.62
2023-03-05T16:57:13.049Z,5.54
2023-03-05T16:59:44.368Z,5.42
2023-03-05T17:02:13.270Z,5.45
2023-03-05T17:04:40.161Z,5.39
2023-03-05T17:07:07.218Z,5.26
2023-03-05T17:09:33.867Z,5.38
2023-03-05T17:12:00.825Z,5.23
2023-03-05T17:14:27.457Z,5.12
2023-03-05T17:16:57.116Z,5.14
2023-03-05T17:19:23.716Z,4.98
2023-03-05T17:21:52.186Z,5.13
2023-03-05T17:24:22.798Z,5.15
2023-03-05T17:26:50.153Z,4.96
2023-03-05T17:29:18.989Z,5.04
2023-03-05T17:31:46.582Z,4.90
2023-03-05T17:34:13.322Z,5.03
2023-03-05T17:36:40.100Z,5.05
2023-03-05T17:39:06.796Z,4.98
2023-03-05T17:41:33.395Z,4.94
2023-03-05T17:44:00.121Z,4.91
2023-03-05T17:46:28.924Z,4.70
2023-03-05T17:48:55.686Z,4.78
2023-03-05T17:51:22.405Z,4.77
2023-03-05T17:53:49.082Z,4.80
2023-03-05T17:56:22.204Z,4.78
2023-03-05T17:58:49.902Z,4.53
2023-03-05T18:01:28.387Z,4.40
2023-03-05T18:03:55.730Z,4.56
2023-03-05T18:06:22.938Z,4.59
2023-03-05T18:08:52.476Z,4.40
2023-03-05T18:11:19.177Z,4.40
2023-03-05T18:13:48.291Z,4.44
2023-03-05T18:16:18.494Z,4.29
2023-03-05T18:18:45.423Z,4.24
2023-03-05T18:21:12.409Z,4.38
2023-03-05T18:23:41.433Z,4.14
2023-03-05T18:26:14.731Z,4.32
2023-03-05T18:28:41.666Z,4.30
2023-03-05T18:31:08.803Z,4.17
2023-03-05T18:33:35.753Z,4.20
2023-03-05T18:36:02.816Z,4.29
2023-03-05T18:38:31.920Z,4.28
2023-03-05T18:41:03.573Z,4.20
2023-03-05T18:43:33.124Z,4.14
2023-03-05T18:46:00.061Z,4.00
2023-03-05T18:48:26.837Z,4.05
2023-03-05T18:50:54.362Z,4.13
2023-03-05T18:53:22.431Z,3.77
2023-03-05T18:55:51.333Z,4.16
2023-03-05T18:58:18.452Z,4.01
2023-03-05T19:00:47.118Z,3.96
2023-03-05T19:03:15.063Z,3.82
2023-03-05T19:05:42.598Z,3.81
2023-03-05T19:08:09.994Z,3.89
2023-03-05T19:10:36.956Z,3.89
2023-03-05T19:13:49.056Z,3.84
2023-03-05T19:16:19.759Z,3.90
2023-03-05T19:19:24.730Z,3.79
2023-03-05T19:21:58.706Z,3.76
2023-03-05T19:24:30.595Z,3.63
2023-03-05T19:27:01.095Z,3.54
2023-03-05T19:29:33.200Z,3.30
2023-03-05T19:31:59.960Z,3.41
2023-03-05T19:34:26.690Z,3.27
2023-03-05T19:36:53.401Z,3.43
2023-03-05T19:39:20.047Z,3.13
2023-03-05T19:41:46.686Z,3.48
2023-03-05T19:44:13.778Z,3.35
2023-03-05T19:46:41.974Z,3.39
2023-03-05T19:49:08.970Z,3.25
2023-03-05T19:51:35.928Z,3.20
2023-03-05T19:54:04.648Z,2.92
2023-03-05T19:56:31.624Z,3.11
2023-03-05T19:58:58.268Z,2.99
2023-03-05T20:01:27.228Z,2.92
2023-03-05T20:03:56.432Z,2.84
2023-03-05T20:06:24.323Z,2.74
2023-03-05T20:08:51.235Z,2.61
2023-03-05T20:11:18.996Z,2.64
2023-03-05T20:13:46.398Z,2.31
2023-03-05T20:16:19.014Z,2.53
2023-03-05T20:18:46.529Z,2.53
2023-03-05T20:21:21.311Z,2.53
2023-03-05T20:23:48.063Z,2.40
2023-03-05T20:26:14.779Z,2.46
2023-03-05T20:28:41.529Z,2.48
2023-03-05T20:31:08.688Z,2.35
2023-03-05T20:33:35.455Z,2.41
2023-03-05T20:36:02.165Z,2.34
2023-03-05T20:38:30.992Z,2.32
2023-03-05T20:41:04.863Z,2.34
2023-03-05T20:43:35.566Z,2.13
2023-03-05T20:46:02.951Z,2.34
2023-03-05T20:48:32.744Z,2.15
2023-03-05T20:51:10.640Z,2.20
2023-03-05T20:53:37.314Z,2.18
2023-03-05T20:56:04.065Z,2.26
2023-03-05T20:58:30.709Z,2.09
2023-03-05T21:00:57.499Z,2.12
2023-03-05T21:03:25.619Z,1.99
2023-03-05T21:05:55.838Z,2.10
2023-03-05T21:08:26.157Z,1.94
2023-03-05T21:10:52.886Z,2.14
2023-03-05T21:13:19.684Z,2.05
2023-03-05T21:15:46.628Z,2.07
2023-03-05T21:18:13.380Z,1.97
2023-03-05T21:20:41.212Z,2.06
2023-03-05T21:23:08.065Z,1.41
2023-03-05T21:25:36.658Z,2.04
2023-03-05T21:28:09.776Z,1.89
2023-03-05T21:30:39.664Z,1.73
2023-03-05T21:33:10.051Z,1.99
2023-03-05T21:35:38.026Z,1.60
2023-03-05T21:38:06.637Z,1.53
2023-03-05T21:40:35.863Z,1.87
2023-03-05T21:43:03.749Z,1.49
2023-03-05T21:45:30.844Z,1.54
2023-03-05T21:47:58.876Z,1.47
2023-03-05T21:50:26.345Z,2.09
2023-03-05T21:52:53.291Z,1.98
2023-03-05T21:55:29.289Z,1.51
2023-03-05T21:57:56.134Z,1.47
2023-03-05T22:00:23.250Z,1.59
2023-03-05T22:02:50.012Z,1.80
2023-03-05T22:05:17.543Z,1.52
2023-03-05T22:07:44.601Z,1.70
2023-03-05T22:10:14.860Z,1.33
2023-03-05T22:13:09.418Z,1.66
2023-03-05T22:15:46.583Z,1.18
2023-03-05T22:18:15.901Z,1.40
2023-03-05T22:20:42.979Z,1.61
2023-03-05T22:23:10.513Z,1.33
2023-03-05T22:25:37.921Z,1.58
2023-03-05T22:28:05.753Z,1.48
2023-03-05T22:30:33.060Z,1.38
2023-03-05T22:33:01.225Z,1.58
2023-03-05T22:35:28.342Z,1.24
2023-03-05T22:37:55.380Z,1.23
2023-03-05T22:40:22.763Z,1.34
2023-03-05T22:42:49.683Z,1.33
2023-03-05T22:45:18.003Z,1.27
2023-03-05T22:47:51.697Z,1.22
2023-03-05T22:50:18.529Z,1.52
2023-03-05T22:52:45.278Z,1.52
2023-03-05T22:55:14.067Z,1.37
2023-03-05T22:57:41.499Z,1.38
2023-03-05T23:00:14.197Z,1.54
2023-03-05T23:02:41.833Z,1.49
2023-03-05T23:05:09.780Z,1.39
2023-03-05T23:07:38.540Z,1.35
2023-03-05T23:10:17.671Z,1.31
2023-03-05T23:12:49.400Z,1.31
2023-03-05T23:15:20.697Z,1.17
2023-03-05T23:17:47.508Z,1.06
2023-03-05T23:20:16.957Z,0.94
2023-03-05T23:22:45.160Z,1.02
2023-03-05T23:25:14.109Z,0.99
2023-03-05T23:27:41.200Z,1.06
2023-03-05T23:30:19.608Z,1.04
2023-03-05T23:33:10.529Z,1.04
2023-03-05T23:35:39.955Z,1.02
2023-03-05T23:38:11.796Z,0.75
2023-03-05T23:40:49.727Z,0.98
2023-03-05T23:43:18.092Z,0.94
2023-03-05T23:45:48.178Z,0.93
2023-03-05T23:48:16.681Z,1.02
2023-03-05T23:50:46.321Z,0.90
2023-03-05T23:53:19.655Z,0.87
2023-03-05T23:55:47.117Z,0.73
2023-03-05T23:58:14.428Z,0.84
